Date,TemperatureHighF,TemperatureAvgF,TemperatureLowF,DewpointHighF,DewpointAvgF,DewpointLowF,HumidityHigh,HumidityAvg,HumidityLow,PressureMaxIn,PressureMinIn,WindSpeedMaxMPH,WindSpeedAvgMPH,GustSpeedMaxMPH,PrecipitationSumIn
2013-1-1,22,9,-2,5,-4,-12,61,55,47,30.30,30.16,17,1,17,0.00
2013-1-2,30,20,8,26,9,-7,88,63,50,30.16,30.01,26,4,26,0.00
2013-1-3,30,20,11,26,11,2,84,68,55,30.36,30.16,37,6,38,0.00
2013-1-4,39,25,11,21,15,2,90,66,47,30.30,30.16,29,4,33,0.00
2013-1-5,39,29,22,29,21,15,92,73,60,30.16,29.95,34,8,36,0.12
2013-1-6,32,22,14,17,12,5,73,64,53,30.30,30.10,36,6,37,0.00
2013-1-7,47,34,23,27,21,14,79,61,45,30.19,29.98,38,8,45,0.00
2013-1-8,48,36,27,31,26,21,81,67,50,30.07,29.83,37,7,40,0.04
2013-1-9,46,37,31,29,27,24,83,68,51,30.42,30.07,26,4,32,0.00
2013-1-10,40,35,32,36,29,23,100,78,52,30.39,29.71,32,10,32,0.04
2013-1-11,54,45,35,48,41,35,100,89,63,29.74,29.48,44,10,44,0.04
2013-1-12,52,24,14,40,13,2,87,60,54,30.10,29.54,46,12,46,0.00
2013-1-13,19,13,8,6,1,-4,59,58,53,30.30,30.04,32,8,33,0.00
2013-1-14,32,18,7,13,4,-5,66,54,43,30.45,30.30,19,2,19,0.00
2013-1-15,35,24,14,16,9,4,69,54,43,30.36,30.07,30,5,30,0.00
2013-1-16,49,34,21,32,22,8,86,61,50,30.19,29.89,33,10,36,0.00
2013-1-17,38,26,16,23,14,6,81,61,44,30.45,30.19,25,4,25,0.00
2013-1-18,57,43,24,33,28,14,78,55,40,30.33,29.89,46,13,50,0.00
2013-1-19,54,41,18,32,26,2,67,55,42,30.27,29.83,52,12,52,0.00
2013-1-20,18,12,6,6,1,-2,69,60,50,30.39,30.24,26,7,32,0.00
2013-1-21,9,4,-3,0,-4,-10,68,68,68,30.42,30.33,32,10,37,0.00
2013-1-22,16,9,1,5,-2,-7,68,60,49,30.42,30.27,24,3,24,0.00
2013-1-23,29,17,5,15,4,-8,66,56,51,30.51,30.16,44,10,44,0.00
2013-1-24,20,11,2,4,-4,-11,53,50,46,30.60,30.22,32,12,36,0.00
2013-1-25,39,25,12,23,11,-1,70,56,49,30.30,30.07,52,9,52,0.00
2013-1-26,35,22,8,15,6,-5,58,50,43,30.33,30.16,32,10,33,0.00
2013-1-27,39,34,30,39,30,13,100,87,49,30.16,29.74,29,11,33,0.04
2013-1-28,47,38,33,47,38,33,100,100,100,29.92,29.59,25,6,25,0.24
2013-1-29,58,41,33,58,40,30,100,97,87,29.68,29.51,26,6,29,0.04
2013-1-30,33,23,14,31,18,6,100,80,59,29.86,29.51,16,0,16,0.00
2013-1-31,14,6,-1,5,-2,-9,68,68,68,30.36,29.86,37,1,37,0.00